Time;durP1;ratioP1;P1;durP2;ratioP2;P2;SDS_P1;SDS_P2;PMS_P1;PMS_P2;Temp;Humidity;BMP_temperature;BMP_pressure;BME280_temperature;BME280_humidity;BME280_pressure;Samples;Min_cycle;Max_cycle;Signal;HPM_P1;HPM_P2
2023/04/11 00:00:19;;;;;;;3.67;2.20;;;15.70;69.70;;;;;;5028121;28;20691;-67
2023/04/11 00:02:45;;;;;;;2.10;1.67;;;15.70;70.10;;;;;;5026714;28;20230;-67
2023/04/11 00:05:11;;;;;;;2.20;1.73;;;15.30;69.70;;;;;;5024992;28;20463;-67
2023/04/11 00:07:37;;;;;;;3.83;1.52;;;15.70;70.60;;;;;;5026625;28;20229;-67
2023/04/11 00:10:03;;;;;;;1.50;1.40;;;15.40;70.60;;;;;;5029662;28;20741;-67
2023/04/11 00:12:29;;;;;;;2.70;1.40;;;15.40;70.50;;;;;;5028466;28;20575;-67
2023/04/11 00:14:55;;;;;;;2.50;1.57;;;15.70;71.00;;;;;;5022994;28;20182;-67
2023/04/11 00:17:22;;;;;;;2.63;2.03;;;15.50;71.00;;;;;;5026611;28;20190;-66
2023/04/11 00:19:52;;;;;;;1.63;1.52;;;15.40;70.80;;;;;;5022891;28;20412;-66
2023/04/11 00:22:18;;;;;;;1.80;1.65;;;15.60;71.20;;;;;;5026094;28;20198;-66
2023/04/11 00:24:44;;;;;;;3.23;1.70;;;15.50;71.00;;;;;;5029059;28;20192;-66
2023/04/11 00:27:10;;;;;;;2.10;1.67;;;15.50;70.70;;;;;;5028661;28;20581;-65
2023/04/11 00:29:35;;;;;;;3.33;1.73;;;15.60;72.00;;;;;;5029388;28;20671;-66
2023/04/11 00:32:02;;;;;;;1.80;1.70;;;15.50;72.50;;;;;;5024222;28;20210;-66
2023/04/11 00:34:28;;;;;;;1.88;1.65;;;15.70;73.10;;;;;;5027762;28;20201;-67
2023/04/11 00:36:54;;;;;;;2.00;1.67;;;15.50;72.40;;;;;;5026922;28;20182;-66
2023/04/11 00:39:21;;;;;;;3.40;2.03;;;15.60;72.20;;;;;;5026198;28;20214;-66
2023/04/11 00:41:47;;;;;;;3.00;1.90;;;15.70;72.30;;;;;;5027643;28;20237;-67
2023/04/11 00:44:13;;;;;;;2.35;1.73;;;15.60;72.00;;;;;;5021455;28;20197;-66
2023/04/11 00:46:42;;;;;;;2.23;2.03;;;15.60;71.90;;;;;;5026855;28;20190;-66
2023/04/11 00:49:08;;;;;;;1.80;1.70;;;15.60;72.20;;;;;;5026910;28;20453;-66
2023/04/11 00:51:34;;;;;;;1.70;1.60;;;15.70;71.30;;;;;;5025351;28;20280;-66
2023/04/11 00:54:00;;;;;;;1.83;1.70;;;15.70;72.00;;;;;;5027977;28;20217;-67
2023/04/11 00:56:27;;;;;;;3.63;1.80;;;15.70;72.00;;;;;;5027376;28;20217;-66
2023/04/11 00:58:53;;;;;;;1.73;1.63;;;15.70;72.90;;;;;;5026967;28;20468;-66
2023/04/11 01:01:22;;;;;;;1.58;1.48;;;15.70;72.80;;;;;;5026563;28;20186;-66
2023/04/11 01:03:48;;;;;;;1.88;1.77;;;16.00;73.20;;;;;;5023823;28;20174;-66
2023/04/11 01:06:17;;;;;;;1.67;1.58;;;15.70;72.70;;;;;;5026651;28;20206;-66
2023/04/11 01:08:44;;;;;;;1.60;1.50;;;15.70;72.80;;;;;;5028222;28;20177;-66
2023/04/11 01:11:12;;;;;;;1.80;1.70;;;16.00;74.00;;;;;;5025803;28;20208;-66
2023/04/11 01:13:41;;;;;;;2.90;1.80;;;15.60;74.40;;;;;;5026777;28;20233;-66
2023/04/11 01:16:08;;;;;;;2.55;1.90;;;15.50;74.80;;;;;;5026655;28;20193;-66
2023/04/11 01:18:35;;;;;;;2.30;1.70;;;15.70;75.10;;;;;;5023481;28;20224;-66
2023/04/11 01:21:01;;;;;;;1.58;1.48;;;15.60;75.20;;;;;;5023561;28;20182;-66
2023/04/11 01:23:27;;;;;;;4.00;1.57;;;15.70;75.20;;;;;;5025634;28;20194;-67
2023/04/11 01:25:53;;;;;;;2.20;2.00;;;15.50;75.30;;;;;;5025539;28;20440;-67
2023/04/11 01:28:19;;;;;;;3.40;1.97;;;15.70;75.40;;;;;;5023179;28;20196;-68
2023/04/11 01:30:45;;;;;;;2.28;1.83;;;15.60;75.50;;;;;;5026203;28;21021;-68
2023/04/11 01:33:12;;;;;;;1.77;1.67;;;15.60;75.90;;;;;;5026506;28;20198;-68
2023/04/11 01:35:38;;;;;;;2.03;1.92;;;15.50;78.20;;;;;;5026096;28;20455;-68
2023/04/11 01:38:05;;;;;;;2.87;1.90;;;15.40;81.10;;;;;;5026928;28;20186;-68
2023/04/11 01:40:34;;;;;;;1.83;1.73;;;15.40;83.00;;;;;;5025257;28;20519;-68
2023/04/11 01:43:03;;;;;;;2.47;1.60;;;15.40;85.10;;;;;;5027924;28;20698;-67
2023/04/11 01:45:30;;;;;;;3.15;1.95;;;15.30;87.10;;;;;;5023179;28;20193;-69
2023/04/11 01:47:56;;;;;;;2.35;1.45;;;15.30;90.00;;;;;;5024598;28;20273;-68
2023/04/11 01:50:23;;;;;;;2.05;1.83;;;15.10;90.90;;;;;;5027578;28;20201;-68
2023/04/11 01:52:49;;;;;;;2.03;1.83;;;15.10;91.00;;;;;;5027019;28;20218;-67
2023/04/11 01:55:16;;;;;;;1.73;1.63;;;15.30;91.80;;;;;;5026514;28;20265;-69
2023/04/11 01:57:42;;;;;;;2.38;2.17;;;15.10;92.30;;;;;;5022006;28;21252;-67
2023/04/11 02:00:11;;;;;;;2.60;1.80;;;15.30;93.10;;;;;;5027116;28;20280;-67
2023/04/11 02:02:37;;;;;;;1.75;1.65;;;15.20;93.40;;;;;;5023137;28;20229;-67
2023/04/11 02:05:03;;;;;;;2.97;1.90;;;15.00;94.40;;;;;;5023287;28;20213;-66
2023/04/11 02:07:29;;;;;;;1.80;1.70;;;14.90;94.80;;;;;;5027159;28;20221;-67
2023/04/11 02:09:56;;;;;;;2.23;2.03;;;14.70;96.10;;;;;;5024883;28;20268;-66
2023/04/11 02:12:21;;;;;;;2.90;2.10;;;14.70;97.10;;;;;;5025605;28;20203;-67
2023/04/11 02:14:48;;;;;;;2.10;2.00;;;14.50;98.30;;;;;;5028713;28;20248;-66
2023/04/11 02:17:17;;;;;;;2.65;2.05;;;14.30;99.50;;;;;;5029949;28;20615;-66
2023/04/11 02:19:46;;;;;;;2.85;1.67;;;14.30;99.90;;;;;;5026932;28;20266;-68
2023/04/11 02:22:13;;;;;;;2.22;2.03;;;14.20;99.90;;;;;;5028315;28;20233;-66
2023/04/11 02:24:39;;;;;;;1.75;1.65;;;14.10;99.90;;;;;;5028360;28;20253;-66
2023/04/11 02:27:05;;;;;;;2.53;1.77;;;13.90;99.90;;;;;;5027347;28;20190;-67
2023/04/11 02:29:30;;;;;;;3.60;1.77;;;13.80;99.90;;;;;;5029049;28;22220;-66
2023/04/11 02:31:56;;;;;;;4.93;1.70;;;13.90;99.90;;;;;;5031478;28;20202;-66
2023/04/11 02:34:22;;;;;;;1.33;0.93;;;13.40;99.90;;;;;;5029464;28;20436;-67
2023/04/11 02:36:48;;;;;;;1.73;1.20;;;13.10;99.90;;;;;;5028589;28;20610;-67
2023/04/11 02:39:14;;;;;;;1.23;1.00;;;12.90;99.90;;;;;;5028277;28;20217;-68
2023/04/11 02:41:41;;;;;;;1.20;0.80;;;12.80;99.90;;;;;;5028457;28;20659;-67
2023/04/11 02:44:09;;;;;;;1.10;0.98;;;13.00;99.90;;;;;;5030970;28;20755;-67
2023/04/11 02:46:35;;;;;;;2.13;1.10;;;12.60;99.90;;;;;;5030159;28;20190;-67
2023/04/11 02:49:01;;;;;;;1.70;0.90;;;12.50;99.90;;;;;;5023820;28;20186;-68
2023/04/11 02:51:27;;;;;;;2.67;1.20;;;12.60;99.90;;;;;;5029008;28;20569;-67
2023/04/11 02:53:53;;;;;;;1.03;0.90;;;12.30;99.90;;;;;;5028799;28;20587;-67
2023/04/11 02:56:21;;;;;;;1.38;1.00;;;12.50;99.90;;;;;;5028291;28;20599;-67
2023/04/11 02:58:47;;;;;;;1.00;0.90;;;12.50;99.90;;;;;;5027456;28;20206;-67
2023/04/11 03:01:15;;;;;;;1.63;0.95;;;12.30;99.90;;;;;;5022061;28;20183;-66
2023/04/11 03:03:42;;;;;;;2.08;1.10;;;12.40;99.90;;;;;;5028211;28;20193;-68
2023/04/11 03:06:07;;;;;;;1.95;1.30;;;12.20;99.90;;;;;;5027088;28;20186;-66
2023/04/11 03:08:34;;;;;;;1.50;0.97;;;12.30;99.90;;;;;;5031002;28;20585;-66
2023/04/11 03:11:01;;;;;;;1.15;1.05;;;12.20;99.90;;;;;;5028070;28;20709;-67
2023/04/11 03:13:27;;;;;;;1.73;1.00;;;12.20;99.90;;;;;;5028182;28;20288;-67
2023/04/11 03:15:52;;;;;;;1.83;1.00;;;12.10;99.90;;;;;;5028951;28;20194;-67
2023/04/11 03:18:19;;;;;;;1.80;1.20;;;12.00;99.90;;;;;;5026497;28;20841;-67
2023/04/11 03:20:45;;;;;;;1.25;0.90;;;11.90;99.90;;;;;;5026392;28;20246;-68
2023/04/11 03:23:11;;;;;;;1.35;1.00;;;12.00;99.90;;;;;;5024351;28;20210;-66
2023/04/11 03:25:37;;;;;;;1.47;0.90;;;11.80;99.90;;;;;;5028274;28;20682;-67
2023/04/11 03:28:03;;;;;;;1.85;1.10;;;11.70;99.90;;;;;;5028393;28;20273;-66
2023/04/11 03:30:29;;;;;;;2.65;0.90;;;11.60;99.90;;;;;;5025271;28;20285;-68
2023/04/11 03:32:59;;;;;;;1.40;1.03;;;11.50;99.90;;;;;;5026127;28;20206;-67
2023/04/11 03:35:24;;;;;;;3.63;1.80;;;11.40;99.90;;;;;;5028402;28;20595;-67
2023/04/11 03:37:50;;;;;;;1.50;1.00;;;11.30;99.90;;;;;;5028194;28;20375;-67
2023/04/11 03:40:17;;;;;;;1.50;0.97;;;11.50;99.90;;;;;;5023647;28;20392;-68
2023/04/11 03:42:44;;;;;;;1.77;1.35;;;11.30;99.90;;;;;;5028275;28;20285;-67
2023/04/11 03:45:10;;;;;;;2.13;1.30;;;11.40;99.90;;;;;;5029904;28;20205;-67
2023/04/11 03:47:36;;;;;;;1.10;0.90;;;11.70;99.90;;;;;;5029806;28;20174;-67
2023/04/11 03:50:02;;;;;;;1.75;1.65;;;11.70;99.90;;;;;;5028750;28;20664;-68
2023/04/11 03:52:28;;;;;;;2.40;1.20;;;11.60;99.90;;;;;;5027068;28;20212;-67
2023/04/11 03:54:54;;;;;;;2.10;1.00;;;11.50;99.90;;;;;;5028110;28;20973;-67
2023/04/11 03:57:19;;;;;;;1.77;1.23;;;11.30;99.90;;;;;;5023137;28;20201;-67
2023/04/11 03:59:46;;;;;;;1.53;1.43;;;11.40;99.90;;;;;;5026635;28;20220;-68
2023/04/11 04:02:13;;;;;;;1.73;0.95;;;11.20;99.90;;;;;;5027944;28;20210;-67
2023/04/11 04:04:42;;;;;;;1.67;1.27;;;11.20;99.90;;;;;;5026706;28;20681;-68
2023/04/11 04:07:08;;;;;;;2.05;1.00;;;11.30;99.90;;;;;;5029647;28;20279;-68
2023/04/11 04:09:34;;;;;;;2.08;1.30;;;11.40;99.90;;;;;;5022625;28;20594;-68
2023/04/11 04:12:00;;;;;;;1.40;1.13;;;11.20;99.90;;;;;;5025976;28;20271;-67
2023/04/11 04:14:26;;;;;;;2.45;1.33;;;10.80;99.90;;;;;;5026428;28;21441;-67
2023/04/11 04:16:51;;;;;;;2.30;1.30;;;11.40;99.90;;;;;;5028026;28;20197;-67
2023/04/11 04:19:17;;;;;;;1.13;1.03;;;11.80;99.90;;;;;;5027160;28;20714;-67
2023/04/11 04:21:44;;;;;;;3.80;0.90;;;11.40;99.90;;;;;;5028834;28;20210;-68
2023/04/11 04:24:11;;;;;;;1.35;1.25;;;11.30;99.90;;;;;;5028105;28;20194;-67
2023/04/11 04:26:38;;;;;;;1.48;0.80;;;11.50;99.90;;;;;;5026202;28;20178;-68
2023/04/11 04:29:04;;;;;;;2.53;0.80;;;11.20;99.90;;;;;;5022494;28;20194;-67
2023/04/11 04:31:32;;;;;;;1.35;1.25;;;11.30;99.90;;;;;;5025191;28;20197;-68
2023/04/11 04:34:01;;;;;;;2.40;1.80;;;11.60;99.90;;;;;;5025803;28;20628;-68
2023/04/11 04:36:28;;;;;;;2.67;1.50;;;11.30;99.90;;;;;;5020954;28;20208;-67
2023/04/11 04:39:00;;;;;;;1.70;1.15;;;11.30;99.90;;;;;;5025474;28;20708;-66
2023/04/11 04:41:35;;;;;;;1.27;1.00;;;11.60;99.90;;;;;;5021735;28;20190;-67
2023/04/11 04:44:03;;;;;;;1.52;1.20;;;11.30;99.90;;;;;;5022624;28;20184;-66
2023/04/11 04:46:35;;;;;;;1.02;0.75;;;11.30;99.90;;;;;;5022325;28;20654;-66
2023/04/11 04:49:02;;;;;;;1.10;0.93;;;11.10;99.90;;;;;;5024895;28;20197;-66
2023/04/11 04:51:29;;;;;;;1.60;1.02;;;11.40;99.90;;;;;;5026483;28;20201;-66
2023/04/11 04:53:56;;;;;;;1.88;1.02;;;11.10;99.90;;;;;;5027003;28;20584;-66
2023/04/11 04:56:22;;;;;;;1.10;1.00;;;11.20;99.90;;;;;;5025160;28;20198;-66
2023/04/11 04:58:47;;;;;;;2.30;1.00;;;11.20;99.90;;;;;;5024002;28;20260;-66
2023/04/11 05:01:13;;;;;;;1.37;0.90;;;11.30;99.90;;;;;;5024500;28;20446;-66
2023/04/11 05:03:39;;;;;;;5.27;4.40;;;11.10;99.90;;;;;;5028266;28;20202;-66
2023/04/11 05:06:05;;;;;;;3.13;1.07;;;11.00;99.90;;;;;;5024425;28;20183;-66
2023/04/11 05:08:30;;;;;;;1.52;1.08;;;10.90;99.90;;;;;;5023846;28;20659;-66
2023/04/11 05:10:56;;;;;;;1.57;1.10;;;10.40;99.90;;;;;;5022314;28;20236;-66
2023/04/11 05:13:22;;;;;;;1.70;1.03;;;10.90;99.90;;;;;;5016673;28;20205;-66
2023/04/11 05:15:48;;;;;;;1.07;0.80;;;10.70;99.90;;;;;;5023018;28;20227;-70
2023/04/11 05:18:14;;;;;;;2.13;1.05;;;10.60;99.90;;;;;;5019333;28;20191;-67
2023/04/11 05:20:40;;;;;;;2.23;0.80;;;10.70;99.90;;;;;;5021803;28;20220;-66
2023/04/11 05:23:06;;;;;;;2.70;1.70;;;10.50;99.90;;;;;;5027472;28;20213;-67
2023/04/11 05:25:31;;;;;;;2.20;1.10;;;10.40;99.90;;;;;;5024319;28;20785;-67
2023/04/11 05:27:57;;;;;;;1.60;0.80;;;9.70;99.90;;;;;;5027437;28;20765;-66
2023/04/11 05:30:23;;;;;;;2.10;1.70;;;10.10;99.90;;;;;;5027670;28;20198;-67
2023/04/11 05:32:48;;;;;;;2.83;1.10;;;10.30;99.90;;;;;;5026333;28;20212;-67
2023/04/11 05:35:14;;;;;;;4.20;1.10;;;10.00;99.90;;;;;;5023266;28;20847;-68
2023/04/11 05:37:41;;;;;;;1.03;0.90;;;10.10;99.90;;;;;;5024356;28;20185;-68
2023/04/11 05:40:08;;;;;;;1.45;1.23;;;10.30;99.90;;;;;;5020969;28;20308;-66
2023/04/11 05:42:34;;;;;;;2.88;1.10;;;10.00;99.90;;;;;;5024363;28;20223;-67
2023/04/11 05:45:00;;;;;;;3.30;1.63;;;10.10;99.90;;;;;;5025388;28;20181;-67
2023/04/11 05:47:25;;;;;;;2.30;1.00;;;10.10;99.90;;;;;;5022699;28;20242;-68
2023/04/11 05:49:51;;;;;;;2.27;1.33;;;10.10;99.90;;;;;;5030182;28;20267;-68
2023/04/11 05:52:17;;;;;;;1.83;1.20;;;9.80;99.90;;;;;;5029059;28;20282;-68
2023/04/11 05:54:42;;;;;;;2.07;1.30;;;10.10;99.90;;;;;;5029530;28;20193;-68
2023/04/11 05:57:08;;;;;;;1.63;0.93;;;10.10;99.90;;;;;;5025237;28;20200;-69
2023/04/11 05:59:34;;;;;;;2.77;1.77;;;10.10;99.90;;;;;;5032390;28;20768;-69
2023/04/11 06:02:00;;;;;;;1.52;1.15;;;10.40;99.90;;;;;;5028415;28;20950;-69
2023/04/11 06:04:26;;;;;;;2.20;1.07;;;10.00;99.90;;;;;;5025461;28;20189;-69
2023/04/11 06:06:52;;;;;;;2.07;1.33;;;9.90;99.90;;;;;;5030248;28;20448;-67
2023/04/11 06:09:18;;;;;;;1.80;1.10;;;9.50;99.90;;;;;;5028469;28;20230;-69
2023/04/11 06:11:45;;;;;;;1.45;1.00;;;10.10;99.90;;;;;;5027784;28;20219;-68
2023/04/11 06:14:10;;;;;;;5.90;1.23;;;10.10;99.90;;;;;;5028639;28;20329;-67
2023/04/11 06:16:37;;;;;;;2.90;1.10;;;10.10;99.90;;;;;;5030070;28;20938;-68
2023/04/11 06:19:04;;;;;;;2.25;0.80;;;10.00;99.90;;;;;;5028987;28;20218;-65
2023/04/11 06:21:31;;;;;;;0.93;0.80;;;10.10;99.90;;;;;;5029565;28;20188;-65
2023/04/11 06:24:03;;;;;;;2.25;1.20;;;10.10;99.90;;;;;;5029973;28;20281;-66
2023/04/11 06:26:29;;;;;;;1.55;1.17;;;10.10;99.90;;;;;;5027671;28;20178;-65
2023/04/11 06:28:54;;;;;;;1.60;1.50;;;10.00;99.90;;;;;;5028118;28;20199;-65
2023/04/11 06:31:20;;;;;;;2.10;1.83;;;10.20;99.90;;;;;;5029156;28;20281;-66
2023/04/11 06:33:45;;;;;;;1.50;0.90;;;10.10;99.90;;;;;;5026521;28;20689;-65
2023/04/11 06:36:11;;;;;;;1.73;0.80;;;10.20;99.90;;;;;;5028640;28;20642;-65
2023/04/11 06:38:37;;;;;;;2.03;1.10;;;10.40;99.90;;;;;;5030352;28;20294;-66
2023/04/11 06:41:02;;;;;;;7.33;2.93;;;10.10;99.90;;;;;;5029566;28;20243;-66
2023/04/11 06:43:28;;;;;;;1.10;1.00;;;10.30;99.90;;;;;;5028366;28;20438;-66
2023/04/11 06:45:53;;;;;;;2.73;1.13;;;10.40;99.90;;;;;;5029925;28;20223;-64
2023/04/11 06:48:19;;;;;;;2.40;1.17;;;10.40;99.90;;;;;;5027506;28;20208;-65
2023/04/11 06:50:47;;;;;;;1.48;0.73;;;10.40;99.90;;;;;;5025626;28;20296;-66
2023/04/11 06:53:12;;;;;;;11.73;9.75;;;10.40;99.90;;;;;;5025975;28;20210;-65
2023/04/11 06:55:38;;;;;;;4.47;1.80;;;10.40;99.90;;;;;;5025290;28;20193;-66
2023/04/11 06:58:04;;;;;;;2.20;1.07;;;10.50;99.90;;;;;;5025837;28;20834;-69
2023/04/11 07:00:29;;;;;;;1.80;1.10;;;11.00;99.90;;;;;;5023179;28;20303;-69
2023/04/11 07:02:55;;;;;;;2.10;0.97;;;10.50;99.90;;;;;;5027900;28;20296;-69
2023/04/11 07:05:20;;;;;;;1.63;0.80;;;10.70;99.90;;;;;;5027629;28;20196;-66
2023/04/11 07:07:46;;;;;;;0.93;0.70;;;10.90;99.90;;;;;;5027787;28;20183;-65
2023/04/11 07:10:12;;;;;;;1.67;0.70;;;10.60;99.90;;;;;;5027741;28;20194;-66
2023/04/11 07:12:38;;;;;;;3.40;1.00;;;10.80;99.90;;;;;;5026683;28;20534;-65
2023/04/11 07:15:03;;;;;;;2.60;0.90;;;10.60;99.90;;;;;;5026291;28;20544;-66
2023/04/11 07:17:30;;;;;;;2.60;0.87;;;11.00;99.90;;;;;;5026457;28;20204;-67
2023/04/11 07:19:55;;;;;;;1.98;0.90;;;10.80;99.90;;;;;;5027607;28;20476;-66
2023/04/11 07:22:22;;;;;;;1.70;0.80;;;11.20;99.90;;;;;;5028367;28;20202;-66
2023/04/11 07:24:56;;;;;;;3.45;1.50;;;11.30;99.90;;;;;;5026857;28;20700;-67
2023/04/11 07:27:23;;;;;;;5.90;1.42;;;11.20;99.90;;;;;;5026447;28;21061;-65
2023/04/11 07:29:49;;;;;;;2.63;1.20;;;11.20;99.90;;;;;;5026299;28;20201;-66
2023/04/11 07:32:14;;;;;;;1.17;1.07;;;11.10;99.90;;;;;;5028998;28;20213;-68
2023/04/11 07:34:40;;;;;;;2.30;1.13;;;11.50;99.90;;;;;;5024488;28;20604;-65
2023/04/11 07:37:06;;;;;;;2.33;1.10;;;11.00;99.90;;;;;;5027557;28;20187;-65
2023/04/11 07:39:32;;;;;;;1.77;0.93;;;11.50;99.90;;;;;;5028561;28;20214;-65
2023/04/11 07:41:57;;;;;;;1.75;1.23;;;11.30;99.90;;;;;;5025862;28;20687;-65
2023/04/11 07:44:23;;;;;;;3.13;1.10;;;11.70;99.90;;;;;;5028516;28;20186;-66
2023/04/11 07:46:49;;;;;;;2.50;1.27;;;12.30;99.90;;;;;;5027480;28;20183;-66
2023/04/11 07:49:14;;;;;;;2.40;1.30;;;13.00;99.90;;;;;;5026487;28;20640;-67
2023/04/11 07:51:40;;;;;;;1.20;0.97;;;14.30;99.90;;;;;;5026404;28;20488;-67
2023/04/11 07:54:07;;;;;;;2.27;1.53;;;15.10;97.00;;;;;;5028535;28;20651;-68
2023/04/11 07:56:33;;;;;;;1.25;1.15;;;15.80;95.80;;;;;;5024398;28;20591;-68
2023/04/11 07:59:00;;;;;;;3.10;1.23;;;16.60;93.00;;;;;;5028482;28;20209;-68
2023/04/11 08:01:25;;;;;;;3.38;1.15;;;16.10;91.70;;;;;;5026877;28;20190;-68
2023/04/11 08:03:54;;;;;;;1.53;1.07;;;15.70;92.30;;;;;;5028107;28;20189;-68
2023/04/11 08:06:20;;;;;;;2.00;1.35;;;15.90;92.00;;;;;;5024047;28;20198;-68
2023/04/11 08:08:47;;;;;;;3.17;1.37;;;16.10;92.40;;;;;;5022338;28;20186;-66
2023/04/11 08:11:13;;;;;;;2.53;1.45;;;17.20;90.60;;;;;;5021437;28;20594;-68
2023/04/11 08:13:38;;;;;;;4.85;1.38;;;17.10;89.40;;;;;;5024033;28;20201;-68
2023/04/11 08:16:06;;;;;;;3.53;1.33;;;16.50;86.90;;;;;;5027929;28;20189;-68
2023/04/11 08:18:32;;;;;;;2.13;1.33;;;16.10;87.10;;;;;;5024923;28;20689;-65
2023/04/11 08:20:58;;;;;;;3.42;1.50;;;15.90;87.40;;;;;;5024968;28;20444;-67
2023/04/11 08:23:28;;;;;;;2.93;1.10;;;15.90;89.70;;;;;;5021856;28;20229;-67
2023/04/11 08:25:58;;;;;;;5.28;1.40;;;15.40;89.50;;;;;;5027557;28;20316;-67
2023/04/11 08:28:24;;;;;;;3.38;1.58;;;15.10;90.10;;;;;;5025884;28;20178;-67
2023/04/11 08:30:54;;;;;;;3.23;1.27;;;15.00;90.20;;;;;;5023338;28;20585;-67
2023/04/11 08:33:22;;;;;;;4.80;1.23;;;14.70;89.30;;;;;;5021240;28;20209;-67
2023/04/11 08:35:47;;;;;;;2.17;1.38;;;14.40;90.10;;;;;;5024290;28;20186;-67
2023/04/11 08:38:13;;;;;;;3.70;1.50;;;14.70;91.40;;;;;;5023917;28;20193;-68
2023/04/11 08:40:39;;;;;;;2.70;1.13;;;14.50;90.60;;;;;;5023654;28;21108;-67
2023/04/11 08:43:10;;;;;;;7.33;2.57;;;15.10;90.40;;;;;;5024060;28;20217;-67
2023/04/11 08:45:37;;;;;;;4.75;1.65;;;15.30;89.80;;;;;;5022148;28;20274;-69
2023/04/11 08:48:02;;;;;;;2.83;1.60;;;15.30;89.00;;;;;;5023834;28;20174;-68
2023/04/11 08:50:28;;;;;;;1.97;1.20;;;15.30;88.10;;;;;;5018992;28;20205;-67
2023/04/11 08:52:54;;;;;;;2.53;1.10;;;15.60;85.50;;;;;;5023288;28;20222;-67
2023/04/11 08:55:20;;;;;;;3.88;1.30;;;15.40;83.80;;;;;;5022073;28;20186;-68
2023/04/11 08:57:45;;;;;;;3.00;1.30;;;15.20;84.10;;;;;;5020166;28;20193;-66
2023/04/11 09:00:17;;;;;;;2.37;1.30;;;15.50;84.90;;;;;;5024133;28;20214;-66
2023/04/11 09:03:01;;;;;;;3.55;1.27;;;15.70;85.00;;;;;;5026259;28;20209;-67
2023/04/11 09:05:31;;;;;;;4.80;1.42;;;15.70;81.30;;;;;;5025387;28;20186;-65
2023/04/11 09:07:59;;;;;;;2.63;0.90;;;15.70;79.70;;;;;;5027089;28;20175;-66
2023/04/11 09:10:26;;;;;;;3.72;1.38;;;16.20;79.10;;;;;;5026272;28;20239;-67
2023/04/11 09:12:53;;;;;;;2.75;1.40;;;17.00;78.50;;;;;;5024957;28;20202;-66
2023/04/11 09:15:24;;;;;;;1.90;1.42;;;17.40;76.30;;;;;;5025486;28;20571;-66
2023/04/11 09:17:50;;;;;;;3.17;1.35;;;17.50;74.60;;;;;;5027397;28;20547;-67
2023/04/11 09:20:21;;;;;;;2.07;1.67;;;17.00;74.50;;;;;;5026612;28;20275;-67
2023/04/11 09:22:48;;;;;;;6.38;1.42;;;17.00;75.60;;;;;;5025481;28;20541;-68
2023/04/11 09:25:14;;;;;;;2.80;1.50;;;17.00;74.40;;;;;;5027328;28;20793;-67
2023/04/11 09:27:40;;;;;;;4.70;1.30;;;17.10;74.40;;;;;;5022634;28;20315;-69
2023/04/11 09:30:23;;;;;;;3.13;1.80;;;16.80;75.30;;;;;;5026255;28;20182;-70
2023/04/11 09:32:51;;;;;;;2.30;1.20;;;16.60;76.90;;;;;;5027901;28;20259;-70
2023/04/11 09:35:27;;;;;;;2.65;1.70;;;16.60;76.20;;;;;;5025080;28;20182;-66
2023/04/11 09:38:00;;;;;;;3.00;2.58;;;16.70;76.30;;;;;;5026534;28;20185;-66
2023/04/11 09:40:30;;;;;;;3.22;1.35;;;16.50;76.30;;;;;;5025123;28;20715;-69
2023/04/11 09:42:57;;;;;;;2.63;1.65;;;16.40;78.00;;;;;;5023735;28;20289;-70
2023/04/11 09:45:24;;;;;;;3.38;1.20;;;17.10;76.90;;;;;;5025108;28;20190;-67
2023/04/11 09:47:52;;;;;;;4.68;1.60;;;16.70;75.30;;;;;;5021747;28;20595;-69
2023/04/11 09:50:18;;;;;;;2.85;1.42;;;17.00;75.80;;;;;;5026132;28;20439;-67
2023/04/11 09:52:44;;;;;;;3.73;1.30;;;16.80;75.80;;;;;;5019006;28;20218;-68
2023/04/11 09:55:13;;;;;;;1.92;1.50;;;17.00;74.80;;;;;;5021583;28;20195;-67
2023/04/11 09:57:44;;;;;;;4.32;1.80;;;17.00;73.80;;;;;;5021781;28;20224;-67
2023/04/11 10:00:18;;;;;;;2.33;1.20;;;16.50;72.50;;;;;;5022870;28;20814;-68
2023/04/11 10:02:51;;;;;;;3.20;1.35;;;16.10;72.50;;;;;;5026707;28;20229;-66
2023/04/11 10:05:18;;;;;;;1.65;1.20;;;16.10;73.70;;;;;;5025300;28;20613;-67
2023/04/11 10:07:59;;;;;;;2.20;1.02;;;16.00;74.50;;;;;;5026009;28;20525;-67
2023/04/11 10:10:25;;;;;;;5.43;1.60;;;16.30;74.10;;;;;;5025602;28;20182;-67
2023/04/11 10:12:50;;;;;;;4.13;1.87;;;16.30;72.80;;;;;;5024675;28;20656;-67
2023/04/11 10:15:17;;;;;;;2.30;1.40;;;16.40;72.60;;;;;;5026555;28;20221;-67
2023/04/11 10:18:09;;;;;;;2.75;1.40;;;16.60;72.20;;;;;;5026261;28;20182;-66
2023/04/11 10:20:42;;;;;;;1.90;1.05;;;16.90;72.20;;;;;;5023650;28;20218;-67
2023/04/11 10:23:09;;;;;;;4.45;2.10;;;16.80;71.40;;;;;;5024182;28;20237;-67
2023/04/11 10:25:55;;;;;;;2.50;1.38;;;16.70;72.10;;;;;;5026631;28;20181;-68
2023/04/11 10:28:38;;;;;;;2.72;1.60;;;16.20;73.00;;;;;;5024690;28;20186;-65
2023/04/11 10:31:06;;;;;;;3.33;1.80;;;15.90;75.10;;;;;;5021277;28;20190;-68
2023/04/11 10:33:32;;;;;;;3.03;1.55;;;15.80;76.00;;;;;;5020714;28;20727;-66
2023/04/11 10:36:05;;;;;;;4.68;2.55;;;15.50;76.20;;;;;;5024433;28;20720;-66
2023/04/11 10:38:40;;;;;;;3.88;1.60;;;15.20;81.90;;;;;;5029481;28;20660;-68
2023/04/11 10:41:28;;;;;;;3.75;1.90;;;15.10;83.60;;;;;;5028260;28;20185;-71
2023/04/11 10:44:12;;;;;;;2.15;1.30;;;15.10;84.10;;;;;;5029406;28;20542;-69
2023/04/11 10:46:52;;;;;;;2.22;1.52;;;15.10;85.90;;;;;;5023949;28;20214;-69
2023/04/11 10:49:51;;;;;;;2.78;1.40;;;15.10;86.80;;;;;;5026772;28;20182;-69
2023/04/11 10:52:22;;;;;;;1.52;1.25;;;15.10;86.20;;;;;;5024840;28;20597;-69
2023/04/11 10:54:50;;;;;;;3.00;1.40;;;15.60;85.00;;;;;;5028508;28;20182;-68
2023/04/11 10:57:16;;;;;;;3.20;1.85;;;15.80;83.30;;;;;;5028018;28;20194;-70
2023/04/11 10:59:41;;;;;;;3.42;1.40;;;16.20;82.40;;;;;;5027381;28;20206;-69
2023/04/11 11:02:08;;;;;;;3.07;1.27;;;16.60;79.00;;;;;;5028024;28;20714;-68
2023/04/11 11:04:35;;;;;;;1.98;1.20;;;16.90;76.90;;;;;;5030721;28;20523;-67
2023/04/11 11:07:03;;;;;;;2.95;1.10;;;17.00;74.50;;;;;;5023110;28;20186;-68
2023/04/11 11:09:29;;;;;;;2.88;1.55;;;16.90;72.60;;;;;;5029613;28;20237;-68
2023/04/11 11:12:08;;;;;;;1.90;1.10;;;16.80;71.80;;;;;;5024055;28;20300;-69
2023/04/11 11:14:35;;;;;;;2.92;1.50;;;16.30;72.00;;;;;;5026597;28;20216;-68
2023/04/11 11:17:01;;;;;;;4.25;1.80;;;15.90;72.10;;;;;;5028177;28;20190;-68
2023/04/11 11:19:28;;;;;;;2.70;1.50;;;16.00;73.70;;;;;;5023101;28;20621;-67
2023/04/11 11:21:54;;;;;;;2.65;1.50;;;15.90;73.60;;;;;;5026716;28;20216;-68
2023/04/11 11:24:25;;;;;;;1.53;1.20;;;16.10;74.70;;;;;;5026900;28;20186;-71
2023/04/11 11:26:52;;;;;;;4.75;2.22;;;16.00;74.50;;;;;;5024483;28;20617;-67
2023/04/11 11:29:30;;;;;;;3.40;1.40;;;15.90;72.40;;;;;;5028393;28;20595;-67
2023/04/11 11:31:56;;;;;;;3.08;1.60;;;16.10;70.60;;;;;;5027513;28;20870;-69
2023/04/11 11:34:34;;;;;;;3.67;1.90;;;16.30;71.00;;;;;;5025898;28;20269;-69
2023/04/11 11:37:05;;;;;;;1.85;1.40;;;16.10;69.40;;;;;;5024729;28;20208;-69
2023/04/11 11:39:31;;;;;;;2.35;1.38;;;16.20;69.80;;;;;;5028841;28;20206;-69
2023/04/11 11:41:57;;;;;;;2.93;1.47;;;16.70;69.20;;;;;;5018786;28;20264;-69
2023/04/11 11:44:26;;;;;;;3.75;1.60;;;16.70;69.10;;;;;;5028005;28;20445;-69
2023/04/11 11:47:15;;;;;;;3.25;1.50;;;16.50;67.80;;;;;;5025620;28;20261;-69
2023/04/11 11:49:49;;;;;;;3.28;1.52;;;16.30;68.20;;;;;;5041678;28;20196;-69
2023/04/11 11:52:35;;;;;;;2.38;1.20;;;15.90;67.80;;;;;;5027060;28;20721;-69
2023/04/11 11:55:28;;;;;;;3.22;1.35;;;16.30;67.30;;;;;;5028916;28;20269;-69
2023/04/11 11:57:57;;;;;;;1.45;1.20;;;16.30;67.10;;;;;;5025165;28;20194;-69
2023/04/11 12:00:24;;;;;;;1.75;1.60;;;17.10;65.90;;;;;;5025333;28;20225;-69
2023/04/11 12:02:52;;;;;;;4.60;1.65;;;17.10;64.20;;;;;;5024661;28;20706;-69
2023/04/11 12:05:18;;;;;;;3.38;1.77;;;17.20;62.60;;;;;;5028084;28;20224;-69
2023/04/11 12:07:44;;;;;;;2.28;1.70;;;17.80;63.10;;;;;;5024805;28;20182;-69
2023/04/11 12:10:14;;;;;;;3.20;1.83;;;17.50;62.70;;;;;;5028100;28;20194;-69
2023/04/11 12:12:42;;;;;;;4.03;2.50;;;17.30;62.00;;;;;;5026663;28;20216;-69
2023/04/11 12:15:16;;;;;;;1.98;1.10;;;17.10;61.20;;;;;;5028074;28;20198;-69
2023/04/11 12:17:42;;;;;;;4.35;1.65;;;17.20;59.60;;;;;;5026640;28;20564;-69
2023/04/11 12:20:09;;;;;;;6.03;1.50;;;16.50;59.80;;;;;;5024556;28;20268;-69
2023/04/11 12:22:38;;;;;;;3.53;1.60;;;16.30;62.40;;;;;;5023185;28;20695;-68
2023/04/11 12:25:13;;;;;;;2.97;1.83;;;16.20;63.30;;;;;;5023348;28;20194;-69
2023/04/11 12:27:41;;;;;;;2.53;1.42;;;16.10;62.80;;;;;;5023833;28;20220;-69
2023/04/11 12:30:08;;;;;;;3.45;1.50;;;15.80;63.50;;;;;;5025706;28;20182;-70
2023/04/11 12:32:34;;;;;;;2.70;1.33;;;16.00;63.80;;;;;;5023466;28;20206;-69
2023/04/11 12:35:01;;;;;;;1.90;1.10;;;16.10;63.60;;;;;;5027313;28;20228;-69
2023/04/11 12:37:27;;;;;;;4.03;1.45;;;16.10;63.80;;;;;;5024319;28;20585;-69
2023/04/11 12:39:53;;;;;;;4.90;1.50;;;15.90;63.40;;;;;;5025897;28;20217;-69
2023/04/11 12:42:18;;;;;;;2.30;1.30;;;16.00;64.50;;;;;;5026419;28;20205;-69
2023/04/11 12:44:45;;;;;;;3.30;1.63;;;15.60;61.80;;;;;;5028021;28;20190;-69
2023/04/11 12:47:11;;;;;;;1.92;1.20;;;15.50;61.80;;;;;;5029107;28;20182;-69
2023/04/11 12:49:37;;;;;;;2.20;1.53;;;15.70;63.50;;;;;;5025275;28;20656;-70